Portada
METAR-TAF:

METAR-TAF

Aeropuertos :

Aeropuerto Internacional Ingeniero Ambrosio Taravella

Córdoba, Argentina

latitud: 31-19S, longitud: 064-13W, altitud: 484 m

Observación

El informe se hizo hace 22 minutos, a las 12:00 UTC
Viento 3 kt del oeste
Temperatura 4°C
Humedad 75%
Presión 1019 hPa
Visibilidad: 6000 m

METAR: SACO 021200Z 27003KT 6000 NSC 04/00 Q1019

Hora: 09:22 (12:22 UTC)

Pronóstico

El informe se hizo hace 1 hora y 22 minutos, a las 11:00 UTC
Pronóstico válido del 02 a las 12 UTC al 03 a las 12 UTC
Viento 3 kt con dirección variable
Visibilidad 10 km o más
sin nubes por debajo de 1500 m y sin presencia de cumulonimbus.
Evolucionando progresivamente
del 02 a las 16 UTC al 02 a las 19 UTC
Viento 10 kt del noreste con ráfagas de 20 kt
Evolucionando progresivamente
del 03 a las 03 UTC al 03 a las 06 UTC
Viento 10 kt del norte

TAF: SACO 021100Z 0212/0312 VRB03KT CAVOK TX21/0218Z TN04/0310Z BECMG 0216/0219 05010G20KT BECMG 0303/0306 36010KT

Observaciones y pronósticos meteorológicos de más de 4000 aeropuertos (mensajes METAR y TAF).

Los puntos amarillos y rojos representan las estaciones disponibles.

Ponga el ratón en el punto deseado para ver el nombre de la estación.

Haga clic para ver las observaciones y los pronósticos meteorológicos.

Para cambiar el mapa : haga clic en los botones verdes con una cruz de color negro para hacer un zoom, en el botón verde con un guión para alejar o en las flechas verdes para mapas adyacentes.


METAR-TAF: